createdAt,value
2023-10-20T00:00:20.130Z,15.35
2023-10-20T00:02:37.103Z,15.68
2023-10-20T00:04:54.067Z,14.20
2023-10-20T00:07:10.981Z,15.05
2023-10-20T00:09:27.893Z,16.92
2023-10-20T00:11:44.752Z,16.77
2023-10-20T00:14:01.670Z,13.95
2023-10-20T00:16:18.676Z,13.75
2023-10-20T00:18:35.632Z,13.25
2023-10-20T00:20:52.472Z,15.60
2023-10-20T00:23:09.378Z,16.27
2023-10-20T00:25:26.318Z,13.70
2023-10-20T00:27:43.241Z,18.65
2023-10-20T00:30:00.164Z,19.35
2023-10-20T00:32:17.075Z,19.75
2023-10-20T00:34:34.278Z,18.17
2023-10-20T00:36:51.357Z,18.10
2023-10-20T00:39:08.265Z,18.50
2023-10-20T00:41:25.205Z,17.70
2023-10-20T00:43:42.260Z,17.08
2023-10-20T00:45:59.234Z,17.42
2023-10-20T00:48:16.159Z,20.25
2023-10-20T00:50:33.077Z,18.38
2023-10-20T00:52:50.238Z,18.10
2023-10-20T00:55:07.534Z,17.13
2023-10-20T00:57:24.803Z,19.90
2023-10-20T00:59:41.732Z,17.85
2023-10-20T01:01:58.905Z,20.27
2023-10-20T01:04:16.391Z,18.02
2023-10-20T01:06:33.342Z,16.08
2023-10-20T01:08:50.439Z,19.20
2023-10-20T01:11:07.876Z,16.73
2023-10-20T01:13:24.983Z,16.52
2023-10-20T01:15:41.890Z,15.88
2023-10-20T01:17:58.792Z,15.90
2023-10-20T01:20:15.795Z,15.80
2023-10-20T01:22:32.861Z,16.00
2023-10-20T01:24:50.778Z,15.85
2023-10-20T01:27:07.736Z,15.07
2023-10-20T01:29:24.729Z,12.07
2023-10-20T01:31:41.649Z,14.63
2023-10-20T01:33:58.567Z,11.82
2023-10-20T01:36:15.469Z,13.80
2023-10-20T01:38:32.418Z,10.18
2023-10-20T01:40:49.311Z,12.82
2023-10-20T01:43:06.184Z,12.05
2023-10-20T01:45:23.503Z,13.60
2023-10-20T01:47:40.501Z,9.90
2023-10-20T01:49:57.437Z,12.07
2023-10-20T01:52:14.541Z,13.35
2023-10-20T01:54:31.654Z,13.32
2023-10-20T01:56:48.843Z,10.73
2023-10-20T01:59:05.714Z,11.27
2023-10-20T02:01:22.710Z,10.05
2023-10-20T02:03:39.660Z,12.63
2023-10-20T02:05:57.105Z,13.60
2023-10-20T02:08:14.484Z,13.82
2023-10-20T02:10:31.409Z,14.70
2023-10-20T02:12:48.303Z,14.63
2023-10-20T02:15:05.262Z,21.15
2023-10-20T02:17:22.318Z,15.18
2023-10-20T02:19:39.235Z,16.17
2023-10-20T02:21:56.619Z,17.60
2023-10-20T02:24:13.550Z,16.10
2023-10-20T02:26:30.506Z,17.10
2023-10-20T02:28:47.407Z,16.65
2023-10-20T02:31:04.795Z,14.55
2023-10-20T02:33:22.328Z,14.38
2023-10-20T02:35:39.359Z,14.85
2023-10-20T02:37:56.827Z,14.98
2023-10-20T02:40:13.676Z,19.33
2023-10-20T02:42:30.623Z,16.25
2023-10-20T02:44:48.021Z,14.73
2023-10-20T02:47:04.958Z,14.95
2023-10-20T02:49:21.958Z,16.77
2023-10-20T02:51:39.245Z,14.82
2023-10-20T02:53:56.173Z,12.98
2023-10-20T02:56:13.158Z,14.27
2023-10-20T02:58:30.066Z,17.13
2023-10-20T03:00:47.142Z,15.43
2023-10-20T03:03:04.624Z,15.45
2023-10-20T03:05:21.740Z,17.25
2023-10-20T03:07:38.694Z,17.52
2023-10-20T03:09:55.604Z,18.38
2023-10-20T03:12:12.491Z,18.92
2023-10-20T03:14:29.599Z,21.02
2023-10-20T03:16:46.570Z,19.05
2023-10-20T03:19:03.596Z,19.35
2023-10-20T03:21:20.477Z,19.10
2023-10-20T03:23:37.390Z,21.20
2023-10-20T03:25:54.800Z,22.85
2023-10-20T03:28:11.729Z,25.63
2023-10-20T03:30:28.642Z,23.42
2023-10-20T03:32:45.652Z,22.75
2023-10-20T03:35:02.756Z,23.50
2023-10-20T03:37:19.710Z,23.10
2023-10-20T03:39:37.271Z,21.27
2023-10-20T03:41:54.519Z,25.48
2023-10-20T03:44:11.692Z,22.13
2023-10-20T03:46:28.770Z,24.42
2023-10-20T03:48:45.724Z,27.30
2023-10-20T03:51:02.643Z,24.88
2023-10-20T03:53:22.443Z,21.38
2023-10-20T03:55:39.559Z,23.10
2023-10-20T03:57:56.959Z,22.52
2023-10-20T04:00:13.837Z,21.70
2023-10-20T04:02:30.778Z,22.80
2023-10-20T04:04:47.701Z,26.08
2023-10-20T04:07:04.578Z,22.30
2023-10-20T04:09:21.636Z,20.95
2023-10-20T04:11:38.605Z,23.95
2023-10-20T04:13:55.667Z,23.92
2023-10-20T04:16:12.707Z,22.42
2023-10-20T04:18:30.030Z,22.58
2023-10-20T04:20:46.973Z,19.98
2023-10-20T04:23:04.334Z,21.45
2023-10-20T04:25:21.263Z,22.73
2023-10-20T04:27:38.201Z,22.15
2023-10-20T04:29:55.331Z,21.30
2023-10-20T04:32:12.313Z,22.48
2023-10-20T04:34:29.452Z,19.95
2023-10-20T04:36:46.788Z,19.40
2023-10-20T04:39:03.653Z,21.10
2023-10-20T04:41:20.542Z,20.98
2023-10-20T04:43:37.444Z,20.33
2023-10-20T04:45:54.345Z,20.70
2023-10-20T04:48:11.720Z,20.83
2023-10-20T04:50:28.716Z,22.35
2023-10-20T04:52:45.776Z,21.88
2023-10-20T04:55:02.637Z,22.17
2023-10-20T04:57:19.509Z,24.50
2023-10-20T04:59:36.489Z,24.55
2023-10-20T05:01:53.571Z,23.25
2023-10-20T05:04:10.517Z,22.23
2023-10-20T05:06:27.515Z,24.33
2023-10-20T05:08:44.486Z,27.20
2023-10-20T05:11:01.371Z,23.95
2023-10-20T05:13:18.289Z,23.90
2023-10-20T05:15:35.176Z,23.42
2023-10-20T05:17:52.181Z,24.95
2023-10-20T05:20:09.175Z,22.35
2023-10-20T05:22:26.088Z,24.55
2023-10-20T05:24:42.959Z,22.17
2023-10-20T05:27:00.341Z,23.60
2023-10-20T05:29:17.270Z,22.63
2023-10-20T05:31:34.641Z,27.80
2023-10-20T05:33:51.543Z,24.45
2023-10-20T05:36:09.528Z,27.17
2023-10-20T05:38:26.478Z,23.58
2023-10-20T05:40:43.646Z,24.88
2023-10-20T05:43:00.589Z,22.05
2023-10-20T05:45:17.495Z,22.63
2023-10-20T05:47:34.458Z,22.27
2023-10-20T05:49:51.537Z,23.98
2023-10-20T05:52:08.438Z,23.15
2023-10-20T05:54:25.575Z,21.35
2023-10-20T05:56:42.527Z,19.27
2023-10-20T05:58:59.428Z,20.13
2023-10-20T06:01:16.490Z,20.73
2023-10-20T06:03:38.562Z,17.27
2023-10-20T06:05:55.509Z,21.15
2023-10-20T06:08:14.677Z,18.75
2023-10-20T06:10:31.586Z,19.38
2023-10-20T06:12:48.511Z,18.13
2023-10-20T06:15:05.377Z,18.80
2023-10-20T06:17:23.538Z,17.58
2023-10-20T06:19:40.472Z,19.80
2023-10-20T06:21:57.477Z,17.90
2023-10-20T06:24:18.858Z,16.10
2023-10-20T06:26:35.854Z,17.17
2023-10-20T06:28:52.802Z,18.25
2023-10-20T06:31:11.822Z,14.45
2023-10-20T06:33:33.275Z,15.23
2023-10-20T06:35:50.212Z,16.60
2023-10-20T06:38:07.829Z,16.13
2023-10-20T06:40:26.263Z,15.85
2023-10-20T06:42:43.197Z,16.50
2023-10-20T06:45:00.309Z,17.77
2023-10-20T06:47:17.642Z,18.25
2023-10-20T06:49:34.747Z,16.20
2023-10-20T06:51:51.847Z,15.60
2023-10-20T06:54:09.018Z,15.10
2023-10-20T06:56:29.142Z,17.63
2023-10-20T06:58:46.396Z,12.75
2023-10-20T07:01:03.525Z,12.52
2023-10-20T07:03:20.621Z,16.27
2023-10-20T07:05:37.607Z,15.30
2023-10-20T07:07:54.606Z,14.77
2023-10-20T07:10:11.473Z,16.58
2023-10-20T07:12:28.435Z,13.90
2023-10-20T07:14:45.358Z,16.98
2023-10-20T07:17:02.723Z,18.33
2023-10-20T07:19:19.632Z,15.90
2023-10-20T07:21:36.561Z,16.70
2023-10-20T07:23:53.636Z,15.30
2023-10-20T07:26:10.678Z,15.82
2023-10-20T07:28:27.739Z,14.10
2023-10-20T07:30:44.750Z,13.95
2023-10-20T07:33:01.744Z,15.93
2023-10-20T07:35:18.814Z,15.57
2023-10-20T07:37:35.844Z,14.20
2023-10-20T07:39:52.714Z,13.55
2023-10-20T07:42:09.829Z,18.60
2023-10-20T07:44:26.758Z,17.40
2023-10-20T07:46:43.777Z,15.27
2023-10-20T07:49:01.108Z,12.93
2023-10-20T07:51:18.022Z,13.25
2023-10-20T07:53:35.040Z,15.50
2023-10-20T07:55:52.013Z,18.23
2023-10-20T07:58:08.959Z,16.38
2023-10-20T08:00:25.851Z,18.35
2023-10-20T08:02:43.089Z,22.92
2023-10-20T08:05:00.496Z,44.08
2023-10-20T08:07:18.301Z,29.80
2023-10-20T08:09:35.432Z,28.98
2023-10-20T08:11:52.556Z,20.13
2023-10-20T08:14:09.606Z,21.77
2023-10-20T08:16:26.612Z,16.65
2023-10-20T08:18:43.511Z,80.50
2023-10-20T08:21:00.447Z,51.80
2023-10-20T08:23:17.434Z,51.45
2023-10-20T08:25:34.420Z,49.40
2023-10-20T08:27:51.510Z,33.50
2023-10-20T08:30:08.918Z,25.45
2023-10-20T08:32:25.909Z,24.92
2023-10-20T08:34:42.867Z,17.48
2023-10-20T08:36:59.819Z,13.90
2023-10-20T08:39:16.875Z,10.70
2023-10-20T08:41:33.897Z,10.80
2023-10-20T08:43:50.865Z,11.40
2023-10-20T08:46:07.817Z,10.27
2023-10-20T08:48:24.813Z,11.68
2023-10-20T08:50:41.822Z,9.40
2023-10-20T08:52:59.226Z,10.48
2023-10-20T08:55:16.219Z,11.82
2023-10-20T08:57:34.480Z,12.07
2023-10-20T08:59:51.498Z,8.88
2023-10-20T09:02:08.468Z,9.93
2023-10-20T09:04:25.522Z,11.98
2023-10-20T09:06:42.519Z,9.60
2023-10-20T09:08:59.471Z,10.23
2023-10-20T09:11:16.562Z,11.65
2023-10-20T09:13:33.558Z,10.85
2023-10-20T09:15:50.598Z,11.65
2023-10-20T09:18:07.649Z,12.50
2023-10-20T09:20:24.593Z,13.85
2023-10-20T09:22:41.975Z,19.75
2023-10-20T09:24:59.181Z,14.43
2023-10-20T09:27:16.074Z,14.35
2023-10-20T09:29:33.270Z,10.75
2023-10-20T09:31:50.339Z,10.32
2023-10-20T09:34:10.998Z,11.27
2023-10-20T09:36:28.609Z,10.65
2023-10-20T09:38:45.788Z,10.23
2023-10-20T09:41:02.848Z,12.63
2023-10-20T09:43:26.232Z,12.82
2023-10-20T09:45:44.151Z,10.32
2023-10-20T09:48:01.178Z,11.82
2023-10-20T09:50:18.349Z,11.07
2023-10-20T09:52:37.961Z,10.13
2023-10-20T09:54:57.447Z,12.85
2023-10-20T09:57:14.421Z,11.93
2023-10-20T09:59:31.750Z,11.88
2023-10-20T10:01:49.611Z,12.35
2023-10-20T10:04:07.042Z,11.32
2023-10-20T10:06:24.041Z,11.55
2023-10-20T10:08:41.058Z,12.10
2023-10-20T10:10:58.741Z,15.02
2023-10-20T10:13:16.111Z,12.52
2023-10-20T10:15:33.364Z,12.38
2023-10-20T10:17:50.427Z,14.65
2023-10-20T10:20:07.587Z,13.85
2023-10-20T10:22:24.465Z,14.63
2023-10-20T10:24:41.552Z,16.77
2023-10-20T10:26:58.688Z,19.20
2023-10-20T10:29:16.195Z,16.38
2023-10-20T10:31:33.365Z,17.10
2023-10-20T10:33:50.548Z,19.30
2023-10-20T10:36:07.834Z,18.45
2023-10-20T10:38:25.126Z,20.23
2023-10-20T10:40:42.140Z,17.88
2023-10-20T10:42:59.036Z,18.65
2023-10-20T10:45:16.425Z,18.55
2023-10-20T10:47:33.373Z,16.00
2023-10-20T10:49:50.310Z,16.17
2023-10-20T10:52:07.869Z,15.70
2023-10-20T10:54:25.179Z,15.23
2023-10-20T10:56:47.269Z,26.17
2023-10-20T10:59:09.643Z,21.80
2023-10-20T11:01:26.587Z,19.05
2023-10-20T11:03:44.614Z,17.75
2023-10-20T11:06:01.619Z,19.63
2023-10-20T11:08:18.782Z,21.88
2023-10-20T11:10:35.815Z,18.23
2023-10-20T11:12:52.784Z,23.35
2023-10-20T11:15:10.865Z,25.20
2023-10-20T11:17:28.440Z,19.55
2023-10-20T11:19:45.628Z,20.63
2023-10-20T11:22:02.736Z,18.33
2023-10-20T11:24:19.698Z,19.52
2023-10-20T11:26:38.849Z,19.88
2023-10-20T11:28:57.841Z,19.90
2023-10-20T11:31:14.773Z,19.17
2023-10-20T11:33:31.912Z,19.58
2023-10-20T11:35:48.934Z,27.13
2023-10-20T11:38:05.910Z,26.88
2023-10-20T11:40:22.819Z,34.72
2023-10-20T11:42:42.185Z,41.70
2023-10-20T11:44:59.138Z,31.25
2023-10-20T11:47:16.126Z,25.60
2023-10-20T11:49:33.067Z,20.33
2023-10-20T11:51:50.010Z,22.08
2023-10-20T11:54:06.899Z,28.38
2023-10-20T11:56:24.469Z,27.83
2023-10-20T11:58:41.619Z,16.13
2023-10-20T12:00:59.656Z,18.35
2023-10-20T12:03:17.021Z,20.98
2023-10-20T12:05:34.147Z,16.50
2023-10-20T12:07:51.224Z,13.23
2023-10-20T12:10:08.141Z,8.15
2023-10-20T12:12:25.492Z,7.53
2023-10-20T12:14:42.488Z,4.80
2023-10-20T12:16:59.736Z,5.00
2023-10-20T12:19:16.709Z,6.32
2023-10-20T12:21:33.623Z,3.40
2023-10-20T12:23:50.591Z,3.35
2023-10-20T12:26:07.505Z,2.03
2023-10-20T12:28:25.484Z,4.85
2023-10-20T12:30:42.407Z,3.50
2023-10-20T12:32:59.824Z,2.20
2023-10-20T12:35:16.784Z,2.70
2023-10-20T12:37:33.743Z,4.18
2023-10-20T12:39:50.841Z,3.22
2023-10-20T12:42:07.783Z,2.88
2023-10-20T12:44:24.786Z,1.67
2023-10-20T12:46:41.781Z,2.40
2023-10-20T12:48:58.685Z,2.63
2023-10-20T12:51:15.706Z,0.88
2023-10-20T12:53:32.697Z,0.90
2023-10-20T12:55:49.625Z,0.50
2023-10-20T12:58:06.946Z,1.67
2023-10-20T13:00:24.277Z,1.00
2023-10-20T13:02:41.450Z,1.88
2023-10-20T13:04:58.543Z,2.35
2023-10-20T13:07:15.499Z,2.80
2023-10-20T13:09:32.823Z,1.63
2023-10-20T13:11:49.811Z,4.88
2023-10-20T13:14:06.886Z,1.10
2023-10-20T13:16:24.216Z,3.17
2023-10-20T13:18:41.142Z,1.80
2023-10-20T13:20:58.164Z,2.05
2023-10-20T13:23:15.128Z,0.60
2023-10-20T13:25:32.010Z,1.00
2023-10-20T13:27:48.933Z,1.90
2023-10-20T13:30:06.286Z,1.30
2023-10-20T13:32:23.758Z,1.20
2023-10-20T13:34:41.189Z,1.00
2023-10-20T13:36:58.089Z,2.20
2023-10-20T13:39:18.195Z,0.52
2023-10-20T13:41:50.002Z,1.02
2023-10-20T13:44:07.102Z,1.58
2023-10-20T13:46:24.161Z,0.70
2023-10-20T13:48:41.114Z,1.00
2023-10-20T13:50:58.202Z,3.83
2023-10-20T13:53:15.716Z,3.35
2023-10-20T13:55:32.731Z,1.85
2023-10-20T13:57:49.708Z,2.33
2023-10-20T14:00:06.701Z,0.55
2023-10-20T14:02:26.338Z,0.93
2023-10-20T14:04:43.443Z,3.63
2023-10-20T14:07:00.405Z,1.23
2023-10-20T14:09:17.479Z,0.85
2023-10-20T14:11:34.398Z,1.75
2023-10-20T14:13:51.316Z,1.40
2023-10-20T14:16:08.213Z,0.93
2023-10-20T14:18:25.346Z,7.22
2023-10-20T14:20:42.349Z,73.70
2023-10-20T14:22:59.261Z,17.10
2023-10-20T14:25:16.123Z,11.07
2023-10-20T14:27:33.030Z,6.75
2023-10-20T14:29:49.990Z,3.50
2023-10-20T14:32:06.908Z,3.40
2023-10-20T14:34:24.020Z,1.77
2023-10-20T14:36:40.965Z,1.60
2023-10-20T14:38:58.006Z,4.38
2023-10-20T14:41:15.114Z,3.63
2023-10-20T14:43:32.043Z,0.90
2023-10-20T14:45:49.009Z,1.52
2023-10-20T14:48:05.983Z,2.70
2023-10-20T14:50:23.080Z,4.80
2023-10-20T14:52:40.230Z,4.60
2023-10-20T14:54:57.122Z,4.68
2023-10-20T14:57:13.988Z,3.88
2023-10-20T14:59:30.898Z,1.85
2023-10-20T15:01:47.850Z,1.17
2023-10-20T15:04:17.961Z,11.23
2023-10-20T15:06:41.638Z,3.97
2023-10-20T15:08:58.576Z,2.28
2023-10-20T15:24:34.300Z,1.75
2023-10-20T15:26:51.357Z,2.55
2023-10-20T15:29:08.482Z,2.78
2023-10-20T15:31:25.910Z,4.32
2023-10-20T15:33:43.403Z,8.57
2023-10-20T15:36:00.459Z,3.30
2023-10-20T15:38:18.046Z,18.60
2023-10-20T15:40:34.946Z,12.70
2023-10-20T15:42:51.915Z,18.95
2023-10-20T15:45:09.034Z,7.00
2023-10-20T15:47:26.013Z,5.00
2023-10-20T15:49:43.166Z,3.28
2023-10-20T15:52:00.555Z,2.97
2023-10-20T15:54:17.518Z,4.63
2023-10-20T15:56:34.498Z,2.85
2023-10-20T15:58:51.471Z,6.82
2023-10-20T16:01:08.634Z,5.30
2023-10-20T16:03:25.740Z,4.38
2023-10-20T16:05:43.736Z,3.63
2023-10-20T16:08:00.688Z,5.47
2023-10-20T16:10:17.784Z,18.35
2023-10-20T16:12:34.971Z,7.03
2023-10-20T16:14:53.272Z,7.60
2023-10-20T16:17:12.286Z,6.53
2023-10-20T16:19:29.224Z,4.63
2023-10-20T16:21:46.273Z,6.85
2023-10-20T16:24:03.426Z,5.05
2023-10-20T16:26:20.394Z,6.15
2023-10-20T16:28:37.355Z,5.53
2023-10-20T16:30:54.505Z,3.67
2023-10-20T16:33:11.703Z,2.65
2023-10-20T16:35:28.697Z,2.53
2023-10-20T16:37:45.743Z,3.38
2023-10-20T16:40:02.690Z,2.92
2023-10-20T16:42:19.608Z,15.13
2023-10-20T16:44:36.645Z,20.30
2023-10-20T16:46:53.702Z,11.27
2023-10-20T16:49:10.701Z,8.32
2023-10-20T16:51:28.638Z,6.65
2023-10-20T16:53:47.896Z,2.75
2023-10-20T16:56:05.329Z,1.50
2023-10-20T16:58:22.287Z,2.65
2023-10-20T17:00:39.227Z,5.95
2023-10-20T17:02:56.645Z,4.47
2023-10-20T17:05:14.281Z,13.77
2023-10-20T17:07:31.215Z,5.57
2023-10-20T17:09:48.227Z,6.78
2023-10-20T17:12:05.794Z,7.00
2023-10-20T17:14:22.977Z,5.80
2023-10-20T17:16:41.006Z,9.98
2023-10-20T17:18:58.399Z,6.60
2023-10-20T17:21:16.586Z,5.93
2023-10-20T17:23:33.547Z,5.07
2023-10-20T17:25:50.479Z,4.40
2023-10-20T17:28:07.378Z,9.85
2023-10-20T17:30:24.358Z,5.15
2023-10-20T17:32:41.438Z,4.03
2023-10-20T17:34:58.412Z,5.85
2023-10-20T17:37:15.388Z,2.75
2023-10-20T17:39:32.286Z,2.55
2023-10-20T17:41:49.504Z,5.15
2023-10-20T17:44:06.908Z,3.85
2023-10-20T17:46:23.866Z,4.80
2023-10-20T17:48:41.052Z,3.58
2023-10-20T17:50:59.349Z,3.75
2023-10-20T17:53:16.433Z,6.38
2023-10-20T17:55:33.464Z,4.95
2023-10-20T17:57:50.422Z,6.45
2023-10-20T18:00:08.140Z,7.82
2023-10-20T18:02:25.218Z,3.88
2023-10-20T18:04:42.220Z,8.70
2023-10-20T18:06:59.231Z,6.15
2023-10-20T18:09:16.433Z,7.03
2023-10-20T18:11:33.485Z,6.43
2023-10-20T18:13:50.599Z,4.93
2023-10-20T18:16:07.687Z,5.30
2023-10-20T18:18:24.783Z,4.80
2023-10-20T18:20:42.041Z,4.25
2023-10-20T18:22:59.039Z,7.53
2023-10-20T18:25:16.109Z,3.75
2023-10-20T18:27:33.161Z,6.32
2023-10-20T18:29:50.351Z,5.30
2023-10-20T18:32:07.739Z,4.20
2023-10-20T18:34:24.674Z,4.15
2023-10-20T18:36:44.094Z,9.48
2023-10-20T18:39:01.280Z,8.30
2023-10-20T18:41:18.302Z,6.85
2023-10-20T18:43:35.452Z,10.07
2023-10-20T18:45:52.915Z,24.60
2023-10-20T18:48:10.324Z,19.15
2023-10-20T18:50:27.311Z,19.13
2023-10-20T18:52:44.301Z,21.75
2023-10-20T18:55:01.343Z,16.52
2023-10-20T18:57:18.243Z,13.98
2023-10-20T18:59:35.815Z,14.40
2023-10-20T19:01:52.897Z,14.07
2023-10-20T19:04:11.016Z,11.95
2023-10-20T19:06:28.464Z,18.92
2023-10-20T19:08:45.449Z,11.70
2023-10-20T19:11:02.422Z,13.10
2023-10-20T19:13:19.470Z,11.75
2023-10-20T19:15:36.586Z,9.63
2023-10-20T19:17:53.653Z,17.80
2023-10-20T19:20:10.570Z,13.45
2023-10-20T19:22:27.515Z,13.30
2023-10-20T19:24:44.431Z,9.10
2023-10-20T19:27:03.730Z,8.82
2023-10-20T19:29:20.654Z,9.98
2023-10-20T19:31:37.685Z,5.90
2023-10-20T19:33:54.766Z,10.60
2023-10-20T19:36:11.779Z,8.73
2023-10-20T19:38:28.929Z,21.10
2023-10-20T19:40:45.836Z,11.35
2023-10-20T19:43:02.787Z,8.98
2023-10-20T19:45:20.221Z,15.80
2023-10-20T19:47:37.501Z,13.55
2023-10-20T19:49:54.487Z,11.65
2023-10-20T19:52:11.397Z,21.17
2023-10-20T19:54:28.504Z,13.15
2023-10-20T19:56:45.437Z,13.60
2023-10-20T19:59:02.438Z,10.85
2023-10-20T20:01:19.405Z,8.27
2023-10-20T20:03:36.672Z,12.32
2023-10-20T20:05:53.643Z,12.90
2023-10-20T20:08:10.595Z,13.25
2023-10-20T20:10:27.920Z,13.55
2023-10-20T20:12:44.818Z,11.75
2023-10-20T20:15:01.792Z,11.77
2023-10-20T20:17:18.799Z,9.90
2023-10-20T20:19:35.884Z,10.40
2023-10-20T20:21:52.913Z,6.75
2023-10-20T20:24:09.946Z,7.28
2023-10-20T20:26:26.960Z,6.50
2023-10-20T20:28:43.837Z,7.55
2023-10-20T20:31:00.749Z,7.82
2023-10-20T20:33:17.715Z,6.20
2023-10-20T20:35:34.739Z,6.35
2023-10-20T20:37:52.115Z,6.68
2023-10-20T20:40:09.125Z,9.15
2023-10-20T20:42:26.137Z,9.07
2023-10-20T20:44:43.051Z,6.40
2023-10-20T20:47:00.020Z,4.30
2023-10-20T20:49:16.985Z,6.28
2023-10-20T20:51:33.876Z,5.25
2023-10-20T20:53:50.846Z,5.03
2023-10-20T20:56:07.867Z,5.72
2023-10-20T20:58:24.838Z,6.72
2023-10-20T21:00:41.740Z,5.68
2023-10-20T21:02:58.824Z,4.85
2023-10-20T21:05:15.847Z,8.93
2023-10-20T21:07:32.762Z,4.70
2023-10-20T21:09:49.650Z,4.57
2023-10-20T21:12:06.671Z,6.88
2023-10-20T21:14:23.570Z,9.27
2023-10-20T21:16:41.033Z,9.65
2023-10-20T21:18:57.893Z,4.93
2023-10-20T21:21:14.973Z,7.85
2023-10-20T21:23:32.058Z,6.18
2023-10-20T21:25:49.078Z,6.88
2023-10-20T21:28:06.066Z,5.93
2023-10-20T21:30:23.019Z,9.88
2023-10-20T21:32:40.109Z,8.35
2023-10-20T21:34:57.088Z,4.88
2023-10-20T21:37:14.136Z,6.35
2023-10-20T21:39:31.090Z,8.45
2023-10-20T21:41:48.265Z,4.97
2023-10-20T21:44:05.183Z,4.72
2023-10-20T21:46:22.201Z,8.50
2023-10-20T21:48:39.317Z,4.70
2023-10-20T21:50:56.356Z,5.07
2023-10-20T21:53:13.299Z,4.68
2023-10-20T21:55:30.200Z,5.53
2023-10-20T21:57:47.176Z,3.63
2023-10-20T22:00:04.074Z,4.05
2023-10-20T22:02:21.020Z,4.05
2023-10-20T22:04:37.976Z,3.88
2023-10-20T22:06:55.006Z,6.55
2023-10-20T22:09:11.993Z,4.18
2023-10-20T22:11:28.967Z,6.47
2023-10-20T22:13:45.882Z,4.72
2023-10-20T22:16:02.814Z,5.13
2023-10-20T22:18:20.085Z,2.67
2023-10-20T22:20:37.168Z,2.90
2023-10-20T22:22:54.057Z,2.95
2023-10-20T22:25:10.970Z,2.75
2023-10-20T22:27:27.876Z,4.15
2023-10-20T22:29:45.256Z,2.30
2023-10-20T22:32:02.216Z,4.90
2023-10-20T22:34:19.159Z,3.53
2023-10-20T22:36:36.095Z,2.47
2023-10-20T22:38:53.086Z,3.25
2023-10-20T22:41:10.265Z,2.90
2023-10-20T22:43:27.165Z,2.70
2023-10-20T22:45:44.512Z,3.00
2023-10-20T22:48:01.484Z,7.05
2023-10-20T22:50:18.394Z,2.20
2023-10-20T22:52:35.449Z,2.08
2023-10-20T22:54:52.437Z,2.03
2023-10-20T22:57:09.429Z,1.45
2023-10-20T22:59:26.351Z,3.28
2023-10-20T23:01:43.323Z,1.52
2023-10-20T23:04:00.798Z,2.00
2023-10-20T23:06:17.904Z,3.63
2023-10-20T23:08:34.925Z,2.35
2023-10-20T23:10:51.876Z,2.58
2023-10-20T23:13:08.881Z,1.88
2023-10-20T23:15:25.861Z,2.35
2023-10-20T23:17:42.868Z,2.88
2023-10-20T23:20:00.030Z,5.05
2023-10-20T23:22:16.927Z,2.95
2023-10-20T23:24:33.871Z,3.83
2023-10-20T23:26:50.775Z,5.22
2023-10-20T23:29:08.173Z,1.75
2023-10-20T23:31:25.121Z,3.40
2023-10-20T23:33:42.144Z,2.30
2023-10-20T23:35:59.555Z,1.40
2023-10-20T23:38:16.513Z,4.35
2023-10-20T23:40:33.492Z,4.07
2023-10-20T23:42:50.833Z,1.90
2023-10-20T23:45:07.896Z,4.10
2023-10-20T23:47:24.842Z,2.38
2023-10-20T23:49:41.801Z,3.33
2023-10-20T23:51:58.669Z,4.18
2023-10-20T23:54:15.731Z,1.77
2023-10-20T23:56:32.796Z,2.25
2023-10-20T23:58:49.654Z,3.65
